Time;durP1;ratioP1;P1;durP2;ratioP2;P2;SDS_P1;SDS_P2;PMS_P1;PMS_P2;Temp;Humidity;BMP_temperature;BMP_pressure;BME280_temperature;BME280_humidity;BME280_pressure;Samples;Min_cycle;Max_cycle;Signal;HPM_P1;HPM_P2
2022/12/27 00:02:19;;;;;;;18.60;5.15;;;4.50;99.90;;;;;;4983944;28;20047;-81
2022/12/27 00:04:45;;;;;;;25.08;6.03;;;4.50;99.90;;;;;;4967029;28;20066;-82
2022/12/27 00:07:10;;;;;;;8.15;5.05;;;4.50;99.90;;;;;;4967329;28;20042;-87
2022/12/27 00:09:36;;;;;;;12.18;3.97;;;4.60;99.90;;;;;;4951256;28;20050;-88
2022/12/27 00:12:01;;;;;;;12.02;4.85;;;4.60;99.90;;;;;;4966786;28;20039;-88
2022/12/27 00:14:28;;;;;;;21.17;4.78;;;4.60;99.90;;;;;;4966985;28;20497;-88
2022/12/27 00:16:54;;;;;;;10.73;5.13;;;4.60;99.90;;;;;;4966623;28;20058;-87
2022/12/27 00:19:19;;;;;;;9.13;4.50;;;4.60;99.90;;;;;;4982605;28;20409;-79
2022/12/27 00:21:45;;;;;;;10.20;4.22;;;4.60;99.90;;;;;;4968816;28;20126;-88
2022/12/27 00:24:10;;;;;;;4.72;3.05;;;4.60;99.90;;;;;;4967012;28;20046;-87
2022/12/27 00:26:38;;;;;;;9.32;5.20;;;4.60;99.90;;;;;;4962661;28;20078;-87
2022/12/27 00:29:03;;;;;;;7.60;4.20;;;4.70;99.90;;;;;;4949023;28;20126;-85
2022/12/27 00:31:30;;;;;;;8.18;3.95;;;4.70;99.90;;;;;;4963886;28;20575;-87
2022/12/27 00:33:58;;;;;;;17.20;5.70;;;4.70;99.90;;;;;;4948202;28;20069;-86
2022/12/27 00:36:27;;;;;;;10.13;3.83;;;4.70;99.90;;;;;;4951570;28;20053;-88
2022/12/27 00:38:54;;;;;;;4.68;2.88;;;4.70;99.90;;;;;;4968140;28;20046;-81
2022/12/27 00:41:20;;;;;;;13.98;5.20;;;4.70;99.90;;;;;;4968479;28;20435;-87
2022/12/27 00:43:46;;;;;;;4.43;1.45;;;4.70;99.90;;;;;;4966948;28;20053;-87
2022/12/27 00:46:12;;;;;;;10.10;3.45;;;4.70;99.90;;;;;;4966588;28;20078;-81
2022/12/27 00:48:38;;;;;;;12.35;4.35;;;4.70;99.90;;;;;;4966250;28;20042;-87
2022/12/27 00:51:12;;;;;;;5.40;2.05;;;4.70;99.90;;;;;;4967576;28;20509;-85
2022/12/27 00:53:37;;;;;;;7.10;2.95;;;4.80;99.90;;;;;;4966643;28;20255;-85
2022/12/27 00:56:08;;;;;;;8.30;4.53;;;4.80;99.90;;;;;;4967667;28;20643;-87
2022/12/27 00:58:35;;;;;;;4.82;3.38;;;4.80;99.90;;;;;;4968268;28;20043;-88
2022/12/27 01:01:10;;;;;;;10.73;5.15;;;4.80;99.90;;;;;;4966106;28;20046;-87
2022/12/27 01:03:35;;;;;;;7.50;3.47;;;4.80;99.90;;;;;;4965639;28;20043;-84
2022/12/27 01:06:13;;;;;;;9.32;4.60;;;4.90;99.90;;;;;;4967525;28;20057;-87
2022/12/27 01:08:39;;;;;;;8.55;3.72;;;4.90;99.90;;;;;;4968099;28;20061;-89
2022/12/27 01:11:06;;;;;;;7.78;3.50;;;4.90;99.90;;;;;;4966254;28;20042;-88
2022/12/27 01:13:32;;;;;;;7.85;2.30;;;4.90;99.90;;;;;;4967517;28;20121;-84
2022/12/27 01:15:58;;;;;;;4.40;3.65;;;4.90;99.90;;;;;;4967523;28;20514;-88
2022/12/27 01:18:24;;;;;;;5.22;2.10;;;4.90;99.90;;;;;;4967098;28;20077;-87
2022/12/27 01:20:49;;;;;;;4.35;1.33;;;4.90;99.90;;;;;;4967283;28;20042;-88
2022/12/27 01:23:15;;;;;;;6.13;2.58;;;4.90;99.90;;;;;;4968459;28;20151;-86
2022/12/27 01:25:41;;;;;;;2.17;1.23;;;4.90;99.90;;;;;;4972622;28;20065;-88
2022/12/27 01:28:06;;;;;;;9.38;2.40;;;4.90;99.90;;;;;;4972452;28;20043;-89
2022/12/27 01:30:32;;;;;;;9.40;3.08;;;4.90;99.90;;;;;;4957048;28;20484;-88
2022/12/27 01:32:58;;;;;;;4.90;2.20;;;4.90;99.90;;;;;;4955506;28;20126;-86
2022/12/27 01:35:23;;;;;;;3.13;1.67;;;4.90;99.90;;;;;;4973870;28;20400;-82
2022/12/27 01:37:50;;;;;;;6.80;1.50;;;4.90;99.90;;;;;;4973330;28;20043;-84
2022/12/27 01:40:15;;;;;;;12.60;1.45;;;4.90;99.90;;;;;;4973008;28;20070;-88
2022/12/27 01:42:54;;;;;;;9.02;1.55;;;4.80;99.90;;;;;;4974119;28;20493;-88
2022/12/27 01:45:24;;;;;;;5.63;1.25;;;4.80;99.90;;;;;;4974007;28;20045;-88
2022/12/27 01:48:04;;;;;;;1.85;1.10;;;4.80;99.90;;;;;;4972536;28;20055;-87
2022/12/27 01:50:39;;;;;;;4.38;1.50;;;4.80;99.90;;;;;;4973870;28;20046;-84
2022/12/27 01:53:23;;;;;;;4.75;1.90;;;4.70;99.90;;;;;;4973742;28;20038;-86
2022/12/27 01:55:54;;;;;;;7.95;2.38;;;4.70;99.90;;;;;;4973302;28;20405;-81
2022/12/27 01:58:38;;;;;;;3.75;2.25;;;4.80;99.90;;;;;;4973643;28;20133;-88
2022/12/27 02:01:06;;;;;;;5.80;2.25;;;4.80;99.90;;;;;;4973388;28;20047;-85
2022/12/27 02:03:33;;;;;;;10.82;2.30;;;4.80;99.90;;;;;;4971302;28;20046;-87
2022/12/27 02:06:01;;;;;;;8.57;3.47;;;4.90;99.90;;;;;;4972235;28;20181;-86
2022/12/27 02:08:40;;;;;;;7.20;1.92;;;4.90;99.90;;;;;;4973569;28;20050;-85
2022/12/27 02:11:08;;;;;;;6.45;2.80;;;4.90;99.90;;;;;;4973598;28;20042;-87
2022/12/27 02:13:39;;;;;;;3.85;2.40;;;4.90;99.90;;;;;;4972560;28;20073;-88
2022/12/27 02:16:17;;;;;;;4.60;1.90;;;4.90;99.90;;;;;;4972319;28;20118;-84
2022/12/27 02:18:43;;;;;;;10.85;3.60;;;4.90;99.90;;;;;;4971475;28;20501;-85
2022/12/27 02:21:44;;;;;;;6.10;2.20;;;4.80;99.90;;;;;;4971938;28;20077;-83
2022/12/27 02:24:31;;;;;;;5.10;1.95;;;4.80;99.90;;;;;;4972049;28;20104;-83
2022/12/27 02:27:22;;;;;;;8.57;3.13;;;4.80;99.90;;;;;;4971897;28;20057;-85
2022/12/27 02:30:07;;;;;;;4.05;2.17;;;4.80;99.90;;;;;;4973969;28;20057;-85
2022/12/27 02:32:50;;;;;;;3.30;1.58;;;4.70;99.90;;;;;;4973314;28;20046;-86
2022/12/27 02:35:30;;;;;;;7.13;2.22;;;4.80;99.90;;;;;;4971398;28;20425;-86
2022/12/27 02:38:25;;;;;;;4.95;2.13;;;4.70;99.90;;;;;;4969964;28;20052;-86
2022/12/27 02:57:07;;;;;;;7.70;2.55;;;4.80;99.90;;;;;;4968274;28;20066;-86
2022/12/27 02:58:52;;;;;;;6.03;2.72;;;4.80;99.90;;;;;;4969820;28;20070;-85
2022/12/27 03:04:53;;;;;;;9.57;3.03;;;4.80;99.90;;;;;;4967508;28;20055;-86
2022/12/27 03:07:47;;;;;;;10.95;3.00;;;4.90;99.90;;;;;;4969712;28;20497;-85
2022/12/27 03:16:54;;;;;;;5.20;2.55;;;4.60;99.90;;;;;;4970033;28;20437;-86
2022/12/27 03:33:11;;;;;;;7.65;2.22;;;4.60;99.90;;;;;;4991538;28;20532;-80
2022/12/27 03:33:26;;;;;;;5.38;2.55;;;4.50;99.90;;;;;;4968589;28;20247;-88
2022/12/27 03:38:57;;;;;;;10.30;3.10;;;4.50;99.90;;;;;;4969670;28;20062;-86
2022/12/27 03:44:24;;;;;;;;;;;4.50;99.90;;;;;;4968801;28;20081;-87
2022/12/27 03:47:25;;;;;;;6.20;2.55;;;4.60;99.90;;;;;;4968653;28;20009;-80
2022/12/27 03:50:12;;;;;;;5.85;2.65;;;4.60;99.90;;;;;;4963041;28;20078;-83
2022/12/27 03:52:47;;;;;;;6.85;2.75;;;4.50;99.90;;;;;;4967611;28;20050;-87
2022/12/27 03:55:15;;;;;;;8.43;3.55;;;4.50;99.90;;;;;;4967498;28;20485;-87
2022/12/27 03:57:41;;;;;;;10.82;3.75;;;4.50;99.90;;;;;;4968854;28;20150;-88
2022/12/27 04:00:07;;;;;;;6.13;2.58;;;4.50;99.90;;;;;;4968931;28;20055;-88
2022/12/27 04:02:33;;;;;;;9.15;2.80;;;4.50;99.90;;;;;;4967926;28;20114;-88
2022/12/27 04:04:59;;;;;;;8.02;2.40;;;4.50;99.90;;;;;;4968144;28;20437;-80
2022/12/27 04:07:24;;;;;;;4.22;1.80;;;4.50;99.90;;;;;;4951202;28;20074;-88
2022/12/27 04:34:43;;;;;;;7.30;3.33;;;4.60;99.90;;;;;;4948034;29;20122;-84
2022/12/27 04:37:11;;;;;;;3.30;2.10;;;4.60;99.90;;;;;;4963717;28;20485;-88
2022/12/27 04:39:37;;;;;;;6.85;2.40;;;4.70;99.90;;;;;;4968357;28;20489;-88
2022/12/27 04:56:00;;;;;;;18.90;4.47;;;4.50;99.90;;;;;;4967864;28;20046;-88
2022/12/27 04:58:25;;;;;;;13.43;3.63;;;4.50;99.90;;;;;;4967498;28;20117;-80
2022/12/27 05:03:37;;;;;;;6.60;1.90;;;4.40;99.90;;;;;;4965809;28;20050;-88
2022/12/27 05:06:03;;;;;;;8.77;2.20;;;4.40;99.90;;;;;;4966158;28;20054;-79
2022/12/27 05:14:00;;;;;;;8.55;3.33;;;4.40;99.90;;;;;;4965984;28;20129;-80
2022/12/27 05:16:37;;;;;;;10.23;3.42;;;4.30;99.90;;;;;;4966554;28;20393;-87
2022/12/27 05:19:04;;;;;;;4.13;2.80;;;4.30;99.90;;;;;;4966526;28;20082;-87
2022/12/27 05:21:29;;;;;;;7.75;3.33;;;4.30;99.90;;;;;;4967805;28;20035;-87
2022/12/27 05:26:39;;;;;;;4.50;3.55;;;4.30;99.90;;;;;;4961680;28;20051;-86
2022/12/27 05:29:06;;;;;;;5.40;3.10;;;4.30;99.90;;;;;;4948124;29;20418;-85
2022/12/27 05:31:33;;;;;;;19.08;3.67;;;4.30;99.90;;;;;;4948282;28;20054;-87
2022/12/27 05:33:59;;;;;;;9.07;2.28;;;4.20;99.90;;;;;;4964011;28;20055;-86
2022/12/27 05:36:26;;;;;;;16.10;4.15;;;4.20;99.90;;;;;;4966239;28;20043;-88
2022/12/27 05:38:52;;;;;;;9.48;3.03;;;4.20;99.90;;;;;;4966097;28;20449;-88
2022/12/27 05:41:18;;;;;;;14.52;3.08;;;4.20;99.90;;;;;;4966551;28;20047;-85
2022/12/27 05:43:43;;;;;;;6.97;4.47;;;4.20;99.90;;;;;;4982455;28;20459;-87
2022/12/27 05:46:15;;;;;;;2.75;2.17;;;4.10;99.90;;;;;;4967359;28;20047;-82
2022/12/27 05:48:41;;;;;;;9.27;4.40;;;4.10;99.90;;;;;;4966517;28;20118;-88
2022/12/27 05:51:09;;;;;;;10.18;3.50;;;4.10;99.90;;;;;;4967046;28;20054;-80
2022/12/27 05:53:35;;;;;;;7.85;3.00;;;4.10;99.90;;;;;;4967093;28;20046;-87
2022/12/27 05:56:01;;;;;;;8.65;2.58;;;4.00;99.90;;;;;;4966983;28;20114;-88
2022/12/27 05:58:27;;;;;;;4.80;2.50;;;4.00;99.90;;;;;;4966201;28;20082;-87
2022/12/27 06:00:52;;;;;;;2.33;2.03;;;4.00;99.90;;;;;;4965704;28;20093;-87
2022/12/27 06:03:18;;;;;;;4.68;2.63;;;3.90;99.90;;;;;;4966618;28;20038;-84
2022/12/27 06:05:44;;;;;;;7.43;2.80;;;3.90;99.90;;;;;;4966388;28;20142;-85
2022/12/27 06:08:10;;;;;;;8.65;2.28;;;3.90;99.90;;;;;;4966785;28;20041;-83
2022/12/27 06:10:36;;;;;;;9.00;2.00;;;3.90;99.90;;;;;;4968672;28;20046;-86
2022/12/27 06:13:03;;;;;;;5.93;2.22;;;3.80;99.90;;;;;;4970585;28;20045;-87
2022/12/27 06:15:29;;;;;;;4.40;1.85;;;3.80;99.90;;;;;;4971138;28;20043;-88
2022/12/27 06:17:58;;;;;;;8.35;3.53;;;3.80;99.90;;;;;;4969343;28;20080;-87
2022/12/27 06:20:24;;;;;;;9.13;2.55;;;3.80;99.90;;;;;;4970805;28;20054;-85
2022/12/27 06:22:49;;;;;;;5.88;1.73;;;3.80;99.90;;;;;;4970342;28;20513;-87
2022/12/27 06:25:15;;;;;;;2.90;2.10;;;3.80;99.90;;;;;;4969563;28;20046;-87
2022/12/27 06:27:41;;;;;;;15.20;2.20;;;3.80;99.90;;;;;;4969678;28;20074;-86
2022/12/27 06:30:07;;;;;;;4.68;1.80;;;3.80;99.90;;;;;;4970688;28;20046;-85
2022/12/27 06:32:34;;;;;;;13.82;4.50;;;3.80;99.90;;;;;;4969794;28;20078;-84
2022/12/27 06:34:59;;;;;;;6.00;2.95;;;3.70;99.90;;;;;;4969944;28;20122;-87
2022/12/27 06:37:25;;;;;;;5.90;2.28;;;3.80;99.90;;;;;;4969001;28;20609;-87
2022/12/27 06:39:50;;;;;;;8.68;2.65;;;3.80;99.90;;;;;;4969981;28;20042;-79
2022/12/27 06:42:16;;;;;;;3.70;2.13;;;3.70;99.90;;;;;;4969643;28;20069;-87
2022/12/27 06:44:42;;;;;;;9.75;2.95;;;3.70;99.90;;;;;;4969079;28;20135;-88
2022/12/27 06:47:07;;;;;;;2.83;2.13;;;3.70;99.90;;;;;;4969179;28;20043;-86
2022/12/27 06:49:33;;;;;;;2.88;2.08;;;3.70;99.90;;;;;;4968991;28;20537;-88
2022/12/27 06:51:58;;;;;;;2.72;2.47;;;3.70;99.90;;;;;;4984721;28;20051;-88
2022/12/27 06:54:24;;;;;;;5.20;1.65;;;3.70;99.90;;;;;;4969835;28;20390;-88
2022/12/27 06:56:49;;;;;;;5.35;3.05;;;3.70;99.90;;;;;;4968195;28;20056;-88
2022/12/27 06:59:15;;;;;;;3.30;2.55;;;3.70;99.90;;;;;;4970004;28;20042;-86
2022/12/27 07:01:41;;;;;;;12.82;4.18;;;3.70;99.90;;;;;;4968611;28;20051;-87
2022/12/27 07:04:08;;;;;;;7.90;2.88;;;3.60;99.90;;;;;;4951186;28;20055;-82
2022/12/27 07:06:35;;;;;;;17.67;3.45;;;3.60;99.90;;;;;;4969849;28;20073;-85
2022/12/27 07:09:01;;;;;;;5.30;2.35;;;3.60;99.90;;;;;;4969338;28;20486;-86
2022/12/27 07:11:27;;;;;;;16.70;3.25;;;3.60;99.90;;;;;;4969914;28;20057;-88
2022/12/27 07:13:54;;;;;;;8.23;2.10;;;3.60;99.90;;;;;;4968105;28;20516;-88
2022/12/27 07:16:23;;;;;;;7.03;2.45;;;3.70;99.90;;;;;;4969956;28;20046;-88
2022/12/27 07:18:48;;;;;;;9.02;3.50;;;3.70;99.90;;;;;;4967146;28;20046;-80
2022/12/27 07:21:20;;;;;;;4.75;2.40;;;3.60;99.90;;;;;;4969763;28;20126;-87
2022/12/27 07:23:46;;;;;;;3.03;2.10;;;3.60;99.90;;;;;;4968240;28;20086;-82
2022/12/27 07:26:14;;;;;;;7.00;2.13;;;3.60;99.90;;;;;;4968011;28;20081;-87
2022/12/27 07:28:40;;;;;;;7.85;3.45;;;3.60;99.90;;;;;;4968167;28;20509;-87
2022/12/27 07:31:12;;;;;;;4.35;2.72;;;3.60;99.90;;;;;;4968627;28;20047;-88
2022/12/27 07:33:37;;;;;;;6.60;2.70;;;3.60;99.90;;;;;;4968479;28;20097;-87
2022/12/27 07:36:12;;;;;;;13.35;2.65;;;3.60;99.90;;;;;;4969232;28;20074;-87
2022/12/27 07:38:37;;;;;;;11.93;3.00;;;3.60;99.90;;;;;;4968043;28;20051;-85
2022/12/27 07:41:03;;;;;;;6.75;2.20;;;3.50;99.90;;;;;;4967792;28;20093;-87
2022/12/27 07:43:30;;;;;;;8.18;3.72;;;3.50;99.90;;;;;;4969038;28;20409;-88
2022/12/27 07:46:02;;;;;;;7.47;2.47;;;3.40;99.90;;;;;;4968645;28;20442;-87
2022/12/27 07:48:28;;;;;;;5.53;3.15;;;3.40;99.90;;;;;;4966972;28;20054;-84
2022/12/27 07:50:54;;;;;;;4.28;2.45;;;3.40;99.90;;;;;;4967871;28;20053;-86
2022/12/27 07:53:20;;;;;;;7.45;2.90;;;3.40;99.90;;;;;;4969266;28;20051;-84
2022/12/27 07:55:46;;;;;;;5.53;2.40;;;3.40;99.90;;;;;;4969130;28;20138;-84
2022/12/27 07:58:11;;;;;;;7.45;2.60;;;3.40;99.90;;;;;;4968681;28;20078;-86
2022/12/27 08:00:37;;;;;;;4.47;2.45;;;3.40;99.90;;;;;;4968630;28;20055;-83
2022/12/27 08:03:03;;;;;;;5.25;2.15;;;3.40;99.90;;;;;;4967561;28;20058;-88
2022/12/27 08:05:29;;;;;;;15.07;3.58;;;3.30;99.90;;;;;;4968620;28;20051;-81
2022/12/27 08:07:56;;;;;;;3.50;1.70;;;3.30;99.90;;;;;;4968380;28;20441;-87
2022/12/27 08:10:21;;;;;;;9.30;2.40;;;3.30;99.90;;;;;;4968709;28;20401;-88
2022/12/27 08:12:47;;;;;;;11.88;2.45;;;3.30;99.90;;;;;;4969074;28;20051;-87
2022/12/27 08:15:12;;;;;;;14.00;3.47;;;3.30;99.90;;;;;;4968242;28;20039;-86
2022/12/27 08:17:38;;;;;;;6.40;2.60;;;3.30;99.90;;;;;;4968097;28;20078;-87
2022/12/27 08:20:04;;;;;;;6.03;2.83;;;3.30;99.90;;;;;;4967141;28;20608;-80
2022/12/27 08:22:30;;;;;;;8.77;2.67;;;3.30;99.90;;;;;;4968498;28;20441;-86
2022/12/27 08:24:55;;;;;;;15.98;2.40;;;3.30;99.90;;;;;;4968231;28;20039;-79
2022/12/27 08:27:22;;;;;;;6.07;3.65;;;3.30;99.90;;;;;;4964345;28;20054;-86
2022/12/27 08:29:51;;;;;;;19.85;2.80;;;3.30;99.90;;;;;;4968241;28;20047;-86
2022/12/27 08:32:16;;;;;;;4.45;2.13;;;3.30;99.90;;;;;;4967759;28;20118;-87
2022/12/27 08:34:42;;;;;;;4.47;3.10;;;3.30;99.90;;;;;;4968078;28;20130;-82
2022/12/27 08:37:08;;;;;;;4.78;2.05;;;3.30;99.90;;;;;;4966723;28;20313;-87
2022/12/27 08:39:33;;;;;;;7.05;3.08;;;3.30;99.90;;;;;;4967135;28;20050;-87
2022/12/27 08:41:59;;;;;;;3.00;1.60;;;3.30;99.90;;;;;;4967702;28;20037;-86
2022/12/27 08:44:26;;;;;;;9.90;1.75;;;3.30;99.90;;;;;;4966812;28;20642;-87
2022/12/27 08:46:52;;;;;;;6.35;2.90;;;3.30;99.90;;;;;;4965787;28;20109;-86
2022/12/27 08:49:17;;;;;;;4.90;2.75;;;3.40;99.90;;;;;;4966967;28;20047;-80
2022/12/27 08:51:43;;;;;;;4.05;3.05;;;3.40;99.90;;;;;;4966680;28;20053;-85
2022/12/27 08:54:08;;;;;;;25.83;4.10;;;3.40;99.90;;;;;;4967900;28;20116;-86
2022/12/27 08:56:34;;;;;;;7.15;1.77;;;3.40;99.90;;;;;;4967648;28;20497;-85
2022/12/27 08:59:00;;;;;;;17.52;3.22;;;3.50;99.90;;;;;;4966686;28;20046;-87
2022/12/27 09:01:25;;;;;;;9.77;2.70;;;3.50;99.90;;;;;;4966757;28;20046;-84
2022/12/27 09:03:51;;;;;;;10.88;2.03;;;3.50;99.90;;;;;;4965092;28;20066;-83
2022/12/27 09:06:22;;;;;;;15.65;3.42;;;3.60;99.90;;;;;;4966170;28;20125;-79
2022/12/27 09:08:49;;;;;;;5.20;2.92;;;3.60;99.90;;;;;;4965639;28;20059;-83
2022/12/27 09:11:20;;;;;;;23.20;3.70;;;3.60;99.90;;;;;;4963601;28;20110;-86
2022/12/27 09:13:46;;;;;;;10.52;2.50;;;3.60;99.90;;;;;;4965520;28;20414;-83
2022/12/27 09:16:18;;;;;;;9.57;3.42;;;3.60;99.90;;;;;;4966150;28;20053;-86
2022/12/27 09:18:47;;;;;;;7.97;2.30;;;3.70;99.90;;;;;;4967045;28;20049;-83
2022/12/27 09:21:14;;;;;;;13.90;3.10;;;3.70;99.90;;;;;;4966200;28;20135;-86
2022/12/27 09:23:40;;;;;;;4.78;2.95;;;3.70;99.90;;;;;;4967246;28;20121;-87
2022/12/27 09:26:08;;;;;;;10.20;3.33;;;3.70;99.90;;;;;;4959689;28;20533;-86
2022/12/27 09:28:34;;;;;;;5.60;2.35;;;3.70;99.90;;;;;;4967806;28;20043;-86
2022/12/27 09:31:00;;;;;;;5.25;2.78;;;3.80;99.90;;;;;;4965978;28;20046;-87
2022/12/27 09:33:26;;;;;;;10.88;4.20;;;3.70;99.90;;;;;;4958979;28;20513;-86
2022/12/27 09:35:52;;;;;;;11.50;4.47;;;3.70;99.90;;;;;;4956621;28;20043;-84
2022/12/27 09:38:18;;;;;;;2.53;1.35;;;3.70;99.90;;;;;;4967626;28;20516;-82
2022/12/27 09:40:53;;;;;;;5.10;1.63;;;3.70;99.90;;;;;;4966738;28;20055;-85
2022/12/27 09:43:23;;;;;;;6.25;3.20;;;3.70;99.90;;;;;;4965906;28;20050;-82
2022/12/27 09:45:52;;;;;;;11.25;3.30;;;3.80;99.90;;;;;;4982800;28;20037;-86
2022/12/27 09:48:31;;;;;;;5.82;2.25;;;3.80;99.90;;;;;;4969252;28;20125;-82
2022/12/27 09:51:14;;;;;;;4.80;2.13;;;3.80;99.90;;;;;;4970654;28;20053;-82
2022/12/27 09:53:58;;;;;;;5.32;2.28;;;3.80;99.90;;;;;;4969619;28;20491;-81
2022/12/27 09:56:31;;;;;;;5.63;2.42;;;3.80;99.90;;;;;;4971360;28;20046;-81
2022/12/27 09:59:02;;;;;;;5.07;2.72;;;3.80;99.90;;;;;;4968197;28;20043;-83
2022/12/27 10:01:31;;;;;;;5.65;2.17;;;3.80;99.90;;;;;;4961762;28;20047;-82
2022/12/27 10:03:57;;;;;;;4.68;2.40;;;3.80;99.90;;;;;;4968464;28;20255;-84
2022/12/27 10:06:48;;;;;;;8.30;1.38;;;3.90;99.90;;;;;;4968713;28;20490;-83
2022/12/27 10:09:57;;;;;;;5.75;2.90;;;3.90;99.90;;;;;;4978475;28;20051;-88
2022/12/27 10:12:50;;;;;;;5.32;2.42;;;4.00;99.90;;;;;;4952238;28;20446;-81
2022/12/27 10:15:25;;;;;;;2.95;1.85;;;4.00;99.90;;;;;;4960697;28;20059;-86
2022/12/27 10:17:53;;;;;;;3.35;1.70;;;4.10;99.90;;;;;;4951396;28;20051;-84
2022/12/27 10:20:40;;;;;;;15.25;2.58;;;4.20;99.90;;;;;;4958373;28;20498;-82
2022/12/27 10:23:11;;;;;;;9.00;2.63;;;4.30;99.90;;;;;;4970735;28;20046;-81
2022/12/27 10:25:39;;;;;;;8.82;2.30;;;4.30;99.90;;;;;;4934687;29;20566;-86
2022/12/27 10:28:21;;;;;;;5.00;2.33;;;4.40;99.90;;;;;;4967494;28;20043;-86
2022/12/27 10:30:47;;;;;;;6.78;1.33;;;4.50;99.90;;;;;;4971260;28;20061;-86
2022/12/27 10:33:25;;;;;;;5.68;2.05;;;4.50;99.90;;;;;;4969940;28;20553;-86
2022/12/27 10:35:54;;;;;;;12.85;2.03;;;4.60;99.90;;;;;;4971388;28;20493;-86
2022/12/27 10:38:19;;;;;;;11.60;2.92;;;4.60;99.90;;;;;;4971092;28;20680;-85
2022/12/27 10:41:02;;;;;;;7.63;3.15;;;4.60;99.90;;;;;;4969314;28;20130;-83
2022/12/27 10:43:35;;;;;;;4.25;1.73;;;4.60;99.90;;;;;;4949514;28;20047;-84
2022/12/27 10:46:23;;;;;;;7.05;2.83;;;4.70;99.90;;;;;;4981003;28;20398;-81
2022/12/27 10:48:57;;;;;;;4.78;2.22;;;4.70;99.90;;;;;;4968008;28;20047;-82
2022/12/27 10:51:32;;;;;;;3.73;1.77;;;4.80;99.90;;;;;;4959004;28;20039;-80
2022/12/27 10:54:14;;;;;;;22.13;3.92;;;4.90;99.90;;;;;;4968489;28;20876;-79
2022/12/27 10:56:43;;;;;;;12.70;2.78;;;4.80;99.90;;;;;;4964283;28;20047;-83
2022/12/27 10:59:20;;;;;;;5.88;2.65;;;4.90;99.90;;;;;;4968700;28;20839;-82
2022/12/27 11:01:48;;;;;;;4.28;1.67;;;4.90;99.90;;;;;;4968721;28;20054;-82
2022/12/27 11:04:20;;;;;;;6.00;3.05;;;4.90;99.90;;;;;;4965144;28;20108;-83
2022/12/27 11:06:48;;;;;;;3.15;2.60;;;5.00;99.90;;;;;;4969777;28;20756;-80
2022/12/27 11:09:25;;;;;;;22.45;3.58;;;5.10;99.90;;;;;;4965811;28;20125;-81
2022/12/27 11:11:51;;;;;;;4.03;1.98;;;5.10;99.90;;;;;;4966775;28;20114;-84
2022/12/27 11:14:19;;;;;;;3.30;1.67;;;5.20;99.90;;;;;;4952879;28;20062;-84
2022/12/27 11:16:47;;;;;;;5.97;2.30;;;5.20;99.90;;;;;;4968727;28;20097;-91
2022/12/27 11:19:25;;;;;;;5.90;3.35;;;5.30;99.90;;;;;;4967634;28;20055;-83
2022/12/27 11:21:53;;;;;;;3.90;2.10;;;5.30;99.90;;;;;;4967093;28;20043;-83
2022/12/27 11:24:21;;;;;;;5.97;2.28;;;5.40;99.90;;;;;;4969869;28;20464;-83
2022/12/27 11:26:57;;;;;;;12.75;2.65;;;5.40;99.90;;;;;;4967285;28;20042;-85
2022/12/27 11:29:26;;;;;;;6.22;2.15;;;5.40;99.90;;;;;;4961770;28;20043;-86
2022/12/27 11:31:53;;;;;;;17.63;3.00;;;5.40;99.90;;;;;;4965898;28;20047;-85
2022/12/27 11:34:36;;;;;;;3.58;2.83;;;5.40;99.90;;;;;;4966213;28;20458;-86
2022/12/27 11:37:14;;;;;;;5.90;2.15;;;5.40;99.90;;;;;;4967704;28;20047;-85
2022/12/27 11:40:02;;;;;;;24.85;3.72;;;5.40;99.90;;;;;;4964429;28;20391;-88
2022/12/27 11:42:39;;;;;;;6.22;3.63;;;5.40;99.90;;;;;;4969622;28;20047;-83
2022/12/27 11:45:21;;;;;;;7.70;2.60;;;5.40;99.90;;;;;;4968902;28;20125;-81
2022/12/27 11:47:52;;;;;;;5.90;2.13;;;5.40;99.90;;;;;;4970575;28;20042;-81
2022/12/27 11:50:21;;;;;;;8.52;3.40;;;5.40;99.90;;;;;;4968570;28;20046;-81
2022/12/27 11:53:04;;;;;;;3.78;2.20;;;5.40;99.90;;;;;;4961054;28;20561;-81
2022/12/27 11:55:48;;;;;;;5.15;2.75;;;5.40;99.90;;;;;;4938227;28;20501;-81
2022/12/27 11:58:32;;;;;;;7.10;3.15;;;5.40;99.90;;;;;;4967554;28;20055;-81
2022/12/27 12:01:26;;;;;;;7.25;2.35;;;5.40;99.90;;;;;;4951597;28;20098;-81
2022/12/27 12:04:07;;;;;;;6.47;3.13;;;5.50;99.90;;;;;;4968342;28;20058;-81
2022/12/27 12:06:49;;;;;;;5.35;2.53;;;5.50;99.90;;;;;;4969206;28;20054;-81
2022/12/27 12:09:18;;;;;;;;;;;5.50;99.90;;;;;;4948906;28;20494;-81
2022/12/27 12:12:01;;;;;;;5.60;2.78;;;5.50;99.90;;;;;;4962853;28;19922;-82
2022/12/27 12:14:57;;;;;;;5.38;1.70;;;5.50;99.90;;;;;;4950281;28;20105;-82
2022/12/27 12:18:17;;;;;;;19.98;3.75;;;5.60;99.90;;;;;;4967388;28;20038;-82
2022/12/27 12:21:14;;;;;;;3.22;2.25;;;5.60;99.90;;;;;;4944274;28;20059;-82
2022/12/27 12:24:18;;;;;;;14.20;2.38;;;5.70;99.90;;;;;;4968127;28;20043;-82
2022/12/27 12:27:05;;;;;;;14.60;2.67;;;5.70;99.90;;;;;;4958559;28;20113;-82
2022/12/27 12:30:03;;;;;;;15.57;4.45;;;5.70;99.90;;;;;;4967113;28;20057;-82
2022/12/27 12:33:07;;;;;;;5.28;2.45;;;5.70;99.90;;;;;;4956369;28;20410;-89
2022/12/27 12:35:53;;;;;;;9.90;2.83;;;5.70;99.90;;;;;;4966636;28;20039;-87
2022/12/27 12:38:40;;;;;;;4.40;2.33;;;5.70;99.90;;;;;;4959719;28;20051;-83
2022/12/27 12:41:31;;;;;;;3.05;2.72;;;5.70;99.90;;;;;;4964074;28;20044;-94
2022/12/27 12:44:28;;;;;;;10.68;3.35;;;5.70;99.90;;;;;;4962988;28;20517;-86
2022/12/27 12:47:06;;;;;;;3.50;1.40;;;5.80;99.90;;;;;;4966222;28;20042;-88
2022/12/27 12:49:42;;;;;;;3.65;1.85;;;5.80;99.90;;;;;;4947420;28;20059;-83
2022/12/27 12:52:24;;;;;;;4.70;1.52;;;5.80;99.90;;;;;;4969075;28;20050;-86
2022/12/27 12:54:59;;;;;;;4.57;1.52;;;5.80;99.90;;;;;;4947860;28;20556;-86
2022/12/27 12:57:25;;;;;;;13.23;1.73;;;5.90;99.90;;;;;;4953917;28;20045;-88
2022/12/27 13:00:09;;;;;;;5.47;2.75;;;5.90;99.90;;;;;;4970769;28;20043;-84
2022/12/27 13:03:12;;;;;;;2.90;1.27;;;5.90;99.90;;;;;;4958570;28;20128;-86
2022/12/27 13:05:46;;;;;;;8.45;1.38;;;6.00;99.90;;;;;;4953818;28;20130;-85
2022/12/27 13:08:12;;;;;;;2.58;1.38;;;6.00;99.90;;;;;;4959740;28;20466;-82
2022/12/27 13:11:05;;;;;;;4.53;1.95;;;6.00;99.90;;;;;;4966710;28;20562;-84
2022/12/27 13:13:42;;;;;;;3.13;1.58;;;6.00;99.90;;;;;;4959232;28;20053;-82
2022/12/27 13:16:45;;;;;;;3.60;1.65;;;6.00;99.90;;;;;;4964705;28;20646;-84
2022/12/27 13:19:23;;;;;;;5.00;2.67;;;6.00;99.90;;;;;;4948723;28;20062;-84
2022/12/27 13:22:00;;;;;;;8.88;2.60;;;6.00;99.90;;;;;;4947121;29;20047;-84
2022/12/27 13:24:51;;;;;;;8.38;2.58;;;5.90;99.90;;;;;;4966229;28;20140;-82
2022/12/27 13:27:41;;;;;;;6.15;2.38;;;5.90;99.90;;;;;;4943009;29;20051;-83
2022/12/27 13:30:21;;;;;;;5.53;2.40;;;5.90;99.90;;;;;;4974814;28;20050;-84
2022/12/27 13:33:19;;;;;;;10.20;2.83;;;5.80;99.90;;;;;;4965616;28;20039;-82
2022/12/27 13:36:17;;;;;;;8.93;3.03;;;5.80;99.90;;;;;;4944084;28;20058;-83
2022/12/27 13:39:01;;;;;;;4.15;2.05;;;5.80;99.90;;;;;;4966939;28;20046;-84
2022/12/27 13:41:54;;;;;;;5.25;3.15;;;5.80;99.90;;;;;;4964047;28;20043;-86
2022/12/27 13:44:30;;;;;;;10.75;3.83;;;5.80;99.90;;;;;;4948051;28;20082;-80
2022/12/27 13:47:13;;;;;;;20.85;5.53;;;5.80;99.90;;;;;;4960060;28;20109;-80
2022/12/27 13:49:48;;;;;;;5.65;4.43;;;5.80;99.90;;;;;;4947611;29;20050;-80
2022/12/27 13:52:35;;;;;;;4.15;2.65;;;5.80;99.90;;;;;;4947636;28;20047;-80
2022/12/27 13:55:58;;;;;;;9.60;3.50;;;5.80;99.90;;;;;;4964091;28;20050;-82
2022/12/27 13:58:51;;;;;;;5.38;3.67;;;5.80;99.90;;;;;;4947781;28;20082;-81
2022/12/27 14:01:30;;;;;;;6.25;3.72;;;5.80;99.90;;;;;;4963743;28;20117;-80
2022/12/27 14:04:23;;;;;;;4.47;2.95;;;5.80;99.90;;;;;;4958913;28;20059;-78
2022/12/27 14:07:04;;;;;;;20.85;3.67;;;5.80;99.90;;;;;;4966491;28;20049;-81
2022/12/27 14:09:39;;;;;;;5.03;2.88;;;5.80;99.90;;;;;;4966253;28;20054;-79
2022/12/27 14:12:28;;;;;;;14.05;3.50;;;5.70;99.90;;;;;;4966527;28;20042;-78
2022/12/27 14:14:59;;;;;;;11.60;4.57;;;5.70;99.90;;;;;;4966221;28;20563;-79
2022/12/27 14:17:49;;;;;;;8.82;3.47;;;5.70;99.90;;;;;;4965508;28;20039;-80
2022/12/27 14:20:50;;;;;;;9.20;4.03;;;5.70;99.90;;;;;;4965739;28;20046;-78
2022/12/27 14:23:22;;;;;;;11.93;4.68;;;5.70;99.90;;;;;;4966740;28;20046;-79
2022/12/27 14:26:04;;;;;;;;;;;5.70;99.90;;;;;;4966135;28;20132;-79
2022/12/27 14:28:40;;;;;;;6.10;3.33;;;5.70;99.90;;;;;;4947499;28;20013;-80
2022/12/27 14:31:40;;;;;;;6.78;4.20;;;5.60;99.90;;;;;;4946503;28;20058;-79
2022/12/27 14:34:49;;;;;;;6.10;3.00;;;5.70;99.90;;;;;;4950059;29;20058;-80
2022/12/27 14:37:53;;;;;;;8.35;5.00;;;5.70;99.90;;;;;;4909882;29;20087;-80
2022/12/27 14:40:37;;;;;;;6.78;3.65;;;5.60;99.90;;;;;;4928975;29;20047;-79
2022/12/27 14:43:15;;;;;;;10.43;4.85;;;5.60;99.90;;;;;;4956869;28;20060;-79
2022/12/27 14:45:50;;;;;;;9.57;3.63;;;5.60;99.90;;;;;;4967016;28;20054;-78
2022/12/27 14:48:41;;;;;;;12.68;5.40;;;5.60;99.90;;;;;;4971860;28;20064;-81
2022/12/27 14:51:37;;;;;;;9.98;4.95;;;5.50;99.90;;;;;;4961664;28;20062;-84
2022/12/27 14:54:28;;;;;;;15.90;5.32;;;5.50;99.90;;;;;;4969541;28;20035;-79
2022/12/27 14:57:15;;;;;;;7.80;4.93;;;5.50;99.90;;;;;;4965901;28;20118;-81
2022/12/27 15:00:00;;;;;;;10.52;5.97;;;5.50;99.90;;;;;;4967378;28;20129;-79
2022/12/27 15:02:40;;;;;;;10.30;5.18;;;5.50;99.90;;;;;;4969607;28;20043;-80